sensor_id;sensor_type;location;lat;lon;timestamp;P1;durP1;ratioP1;P2;durP2;ratioP2
34902;SDS011;21114;44.840;0.214;2022-07-10T00:02:13;9.07;;;6.90;;
34902;SDS011;21114;44.840;0.214;2022-07-10T00:04:39;5.88;;;4.38;;
34902;SDS011;21114;44.840;0.214;2022-07-10T00:07:05;8.60;;;5.93;;
34902;SDS011;21114;44.840;0.214;2022-07-10T00:09:31;7.20;;;4.95;;
34902;SDS011;21114;44.840;0.214;2022-07-10T00:11:58;5.32;;;4.05;;
34902;SDS011;21114;44.840;0.214;2022-07-10T00:14:24;5.65;;;4.25;;
34902;SDS011;21114;44.840;0.214;2022-07-10T00:16:50;8.18;;;5.20;;
34902;SDS011;21114;44.840;0.214;2022-07-10T00:19:16;6.95;;;4.80;;
34902;SDS011;21114;44.840;0.214;2022-07-10T00:21:42;5.40;;;4.40;;
34902;SDS011;21114;44.840;0.214;2022-07-10T00:24:08;6.65;;;4.80;;
34902;SDS011;21114;44.840;0.214;2022-07-10T00:26:35;8.80;;;4.90;;
34902;SDS011;21114;44.840;0.214;2022-07-10T00:29:01;7.07;;;3.85;;
34902;SDS011;21114;44.840;0.214;2022-07-10T00:31:27;6.63;;;4.32;;
34902;SDS011;21114;44.840;0.214;2022-07-10T00:33:53;5.55;;;3.75;;
34902;SDS011;21114;44.840;0.214;2022-07-10T00:36:19;7.82;;;4.70;;
34902;SDS011;21114;44.840;0.214;2022-07-10T00:38:45;7.03;;;4.80;;
34902;SDS011;21114;44.840;0.214;2022-07-10T00:41:12;6.20;;;4.13;;
34902;SDS011;21114;44.840;0.214;2022-07-10T00:56:58;4.28;;;3.40;;
34902;SDS011;21114;44.840;0.214;2022-07-10T00:59:25;6.90;;;4.80;;
34902;SDS011;21114;44.840;0.214;2022-07-10T01:01:51;6.28;;;5.50;;
34902;SDS011;21114;44.840;0.214;2022-07-10T01:04:17;6.90;;;4.22;;
34902;SDS011;21114;44.840;0.214;2022-07-10T01:06:43;6.03;;;4.32;;
34902;SDS011;21114;44.840;0.214;2022-07-10T01:09:10;5.57;;;4.00;;
34902;SDS011;21114;44.840;0.214;2022-07-10T01:11:36;6.78;;;3.92;;
34902;SDS011;21114;44.840;0.214;2022-07-10T01:14:03;4.90;;;3.80;;
34902;SDS011;21114;44.840;0.214;2022-07-10T01:16:30;4.78;;;4.25;;
34902;SDS011;21114;44.840;0.214;2022-07-10T01:18:56;5.07;;;4.20;;
34902;SDS011;21114;44.840;0.214;2022-07-10T01:21:24;5.05;;;3.72;;
34902;SDS011;21114;44.840;0.214;2022-07-10T01:23:50;5.82;;;3.38;;
34902;SDS011;21114;44.840;0.214;2022-07-10T01:26:17;7.95;;;3.72;;
34902;SDS011;21114;44.840;0.214;2022-07-10T01:28:43;4.00;;;3.60;;
34902;SDS011;21114;44.840;0.214;2022-07-10T01:31:09;3.67;;;3.28;;
34902;SDS011;21114;44.840;0.214;2022-07-10T01:33:35;3.67;;;3.30;;
34902;SDS011;21114;44.840;0.214;2022-07-10T01:36:01;3.72;;;3.22;;
34902;SDS011;21114;44.840;0.214;2022-07-10T01:38:27;4.80;;;3.30;;
34902;SDS011;21114;44.840;0.214;2022-07-10T01:40:54;4.85;;;3.42;;
34902;SDS011;21114;44.840;0.214;2022-07-10T01:43:21;4.18;;;3.72;;
34902;SDS011;21114;44.840;0.214;2022-07-10T01:45:47;3.80;;;3.40;;
34902;SDS011;21114;44.840;0.214;2022-07-10T01:48:14;5.30;;;3.78;;
34902;SDS011;21114;44.840;0.214;2022-07-10T01:50:40;5.15;;;3.83;;
34902;SDS011;21114;44.840;0.214;2022-07-10T01:53:06;6.82;;;3.90;;
34902;SDS011;21114;44.840;0.214;2022-07-10T01:55:32;6.93;;;4.22;;
34902;SDS011;21114;44.840;0.214;2022-07-10T01:57:58;5.50;;;3.85;;
34902;SDS011;21114;44.840;0.214;2022-07-10T02:00:24;5.80;;;4.15;;
34902;SDS011;21114;44.840;0.214;2022-07-10T02:02:50;5.53;;;4.93;;
34902;SDS011;21114;44.840;0.214;2022-07-10T02:05:45;8.20;;;4.05;;
34902;SDS011;21114;44.840;0.214;2022-07-10T02:08:11;5.15;;;3.45;;
34902;SDS011;21114;44.840;0.214;2022-07-10T02:10:38;3.95;;;3.55;;
34902;SDS011;21114;44.840;0.214;2022-07-10T02:13:04;3.30;;;3.00;;
34902;SDS011;21114;44.840;0.214;2022-07-10T02:15:30;6.28;;;3.30;;
34902;SDS011;21114;44.840;0.214;2022-07-10T02:17:56;4.78;;;3.22;;
34902;SDS011;21114;44.840;0.214;2022-07-10T02:20:22;4.43;;;3.20;;
34902;SDS011;21114;44.840;0.214;2022-07-10T02:22:48;4.55;;;3.78;;
34902;SDS011;21114;44.840;0.214;2022-07-10T02:25:14;5.97;;;3.60;;
34902;SDS011;21114;44.840;0.214;2022-07-10T02:27:40;5.82;;;3.50;;
34902;SDS011;21114;44.840;0.214;2022-07-10T02:30:07;7.05;;;3.83;;
34902;SDS011;21114;44.840;0.214;2022-07-10T02:32:34;6.85;;;3.70;;
34902;SDS011;21114;44.840;0.214;2022-07-10T02:35:00;9.63;;;3.90;;
34902;SDS011;21114;44.840;0.214;2022-07-10T02:37:26;10.20;;;4.05;;
34902;SDS011;21114;44.840;0.214;2022-07-10T02:39:52;5.55;;;3.92;;
34902;SDS011;21114;44.840;0.214;2022-07-10T02:42:18;8.32;;;4.65;;
34902;SDS011;21114;44.840;0.214;2022-07-10T02:44:44;8.57;;;4.00;;
34902;SDS011;21114;44.840;0.214;2022-07-10T02:47:11;7.32;;;3.90;;
34902;SDS011;21114;44.840;0.214;2022-07-10T02:49:37;4.95;;;3.72;;
34902;SDS011;21114;44.840;0.214;2022-07-10T02:52:03;7.78;;;3.95;;
34902;SDS011;21114;44.840;0.214;2022-07-10T02:54:30;9.50;;;4.70;;
34902;SDS011;21114;44.840;0.214;2022-07-10T02:56:56;10.27;;;6.22;;
34902;SDS011;21114;44.840;0.214;2022-07-10T02:59:22;11.75;;;5.60;;
34902;SDS011;21114;44.840;0.214;2022-07-10T03:01:48;8.10;;;4.63;;
34902;SDS011;21114;44.840;0.214;2022-07-10T03:04:14;7.18;;;4.60;;
34902;SDS011;21114;44.840;0.214;2022-07-10T03:06:40;5.65;;;3.72;;
34902;SDS011;21114;44.840;0.214;2022-07-10T03:09:06;8.23;;;4.95;;
34902;SDS011;21114;44.840;0.214;2022-07-10T03:11:32;5.72;;;3.67;;
34902;SDS011;21114;44.840;0.214;2022-07-10T03:13:58;4.40;;;3.13;;
34902;SDS011;21114;44.840;0.214;2022-07-10T03:16:24;4.75;;;2.42;;
34902;SDS011;21114;44.840;0.214;2022-07-10T03:18:50;3.50;;;2.45;;
34902;SDS011;21114;44.840;0.214;2022-07-10T03:21:17;4.32;;;2.00;;
34902;SDS011;21114;44.840;0.214;2022-07-10T06:26:28;4.40;;;1.50;;
34902;SDS011;21114;44.840;0.214;2022-07-10T06:28:54;2.47;;;1.50;;
34902;SDS011;21114;44.840;0.214;2022-07-10T06:31:22;2.55;;;1.33;;
34902;SDS011;21114;44.840;0.214;2022-07-10T06:33:51;5.40;;;1.65;;
34902;SDS011;21114;44.840;0.214;2022-07-10T06:36:17;2.08;;;1.80;;
34902;SDS011;21114;44.840;0.214;2022-07-10T06:38:43;1.60;;;1.50;;
34902;SDS011;21114;44.840;0.214;2022-07-10T06:41:09;1.48;;;1.10;;
34902;SDS011;21114;44.840;0.214;2022-07-10T06:43:35;1.25;;;1.13;;
34902;SDS011;21114;44.840;0.214;2022-07-10T06:46:02;1.48;;;1.38;;
34902;SDS011;21114;44.840;0.214;2022-07-10T06:48:28;3.08;;;2.00;;
34902;SDS011;21114;44.840;0.214;2022-07-10T06:50:54;4.20;;;2.28;;
34902;SDS011;21114;44.840;0.214;2022-07-10T06:53:20;1.58;;;1.40;;
34902;SDS011;21114;44.840;0.214;2022-07-10T06:55:51;3.58;;;1.40;;
34902;SDS011;21114;44.840;0.214;2022-07-10T06:58:17;2.22;;;1.30;;
34902;SDS011;21114;44.840;0.214;2022-07-10T07:00:43;2.53;;;1.48;;
34902;SDS011;21114;44.840;0.214;2022-07-10T07:03:09;3.35;;;1.35;;
34902;SDS011;21114;44.840;0.214;2022-07-10T07:05:35;1.73;;;1.27;;
34902;SDS011;21114;44.840;0.214;2022-07-10T07:08:05;2.58;;;1.45;;
34902;SDS011;21114;44.840;0.214;2022-07-10T07:10:34;2.15;;;1.50;;
34902;SDS011;21114;44.840;0.214;2022-07-10T07:13:01;4.18;;;1.27;;
34902;SDS011;21114;44.840;0.214;2022-07-10T07:15:28;4.00;;;1.83;;
34902;SDS011;21114;44.840;0.214;2022-07-10T07:17:54;4.78;;;1.42;;
34902;SDS011;21114;44.840;0.214;2022-07-10T07:20:23;2.47;;;1.20;;
34902;SDS011;21114;44.840;0.214;2022-07-10T07:33:46;4.50;;;1.88;;
34902;SDS011;21114;44.840;0.214;2022-07-10T07:36:12;4.35;;;1.60;;
34902;SDS011;21114;44.840;0.214;2022-07-10T07:38:38;3.35;;;1.52;;
34902;SDS011;21114;44.840;0.214;2022-07-10T07:41:04;1.48;;;1.17;;
34902;SDS011;21114;44.840;0.214;2022-07-10T07:43:30;3.88;;;1.80;;
34902;SDS011;21114;44.840;0.214;2022-07-10T07:45:56;3.17;;;1.95;;
34902;SDS011;21114;44.840;0.214;2022-07-10T07:48:22;2.85;;;1.33;;
34902;SDS011;21114;44.840;0.214;2022-07-10T07:50:48;2.83;;;1.60;;
34902;SDS011;21114;44.840;0.214;2022-07-10T07:53:15;1.85;;;1.10;;
34902;SDS011;21114;44.840;0.214;2022-07-10T07:55:41;2.22;;;1.73;;
34902;SDS011;21114;44.840;0.214;2022-07-10T07:58:07;2.33;;;1.77;;
34902;SDS011;21114;44.840;0.214;2022-07-10T08:00:34;4.10;;;1.70;;
34902;SDS011;21114;44.840;0.214;2022-07-10T08:03:00;5.63;;;1.50;;
34902;SDS011;21114;44.840;0.214;2022-07-10T08:05:26;3.70;;;1.45;;
34902;SDS011;21114;44.840;0.214;2022-07-10T08:07:54;2.30;;;1.55;;
34902;SDS011;21114;44.840;0.214;2022-07-10T08:10:21;2.40;;;1.55;;
34902;SDS011;21114;44.840;0.214;2022-07-10T08:12:47;3.10;;;1.40;;
34902;SDS011;21114;44.840;0.214;2022-07-10T08:15:15;3.20;;;1.77;;
34902;SDS011;21114;44.840;0.214;2022-07-10T08:17:41;2.47;;;1.38;;
34902;SDS011;21114;44.840;0.214;2022-07-10T08:20:08;3.88;;;1.88;;
34902;SDS011;21114;44.840;0.214;2022-07-10T08:22:36;2.45;;;1.08;;
34902;SDS011;21114;44.840;0.214;2022-07-10T08:25:02;2.20;;;0.70;;
34902;SDS011;21114;44.840;0.214;2022-07-10T08:27:28;3.63;;;0.93;;
34902;SDS011;21114;44.840;0.214;2022-07-10T08:29:54;2.17;;;1.10;;
34902;SDS011;21114;44.840;0.214;2022-07-10T08:32:21;2.00;;;0.93;;
34902;SDS011;21114;44.840;0.214;2022-07-10T08:34:47;2.50;;;1.67;;
34902;SDS011;21114;44.840;0.214;2022-07-10T08:37:14;6.57;;;1.15;;
34902;SDS011;21114;44.840;0.214;2022-07-10T08:39:40;4.40;;;1.30;;
34902;SDS011;21114;44.840;0.214;2022-07-10T08:42:06;3.95;;;1.13;;
34902;SDS011;21114;44.840;0.214;2022-07-10T08:44:33;1.30;;;0.90;;
34902;SDS011;21114;44.840;0.214;2022-07-10T08:47:00;2.53;;;1.23;;
34902;SDS011;21114;44.840;0.214;2022-07-10T08:49:28;5.97;;;1.55;;
34902;SDS011;21114;44.840;0.214;2022-07-10T09:05:02;2.15;;;1.10;;
34902;SDS011;21114;44.840;0.214;2022-07-10T09:07:37;1.40;;;1.30;;
34902;SDS011;21114;44.840;0.214;2022-07-10T09:10:08;3.95;;;1.95;;
34902;SDS011;21114;44.840;0.214;2022-07-10T09:25:54;3.25;;;0.93;;
34902;SDS011;21114;44.840;0.214;2022-07-10T09:28:21;2.28;;;1.17;;
34902;SDS011;21114;44.840;0.214;2022-07-10T09:30:49;1.95;;;1.45;;
34902;SDS011;21114;44.840;0.214;2022-07-10T09:46:27;1.63;;;1.02;;
34902;SDS011;21114;44.840;0.214;2022-07-10T10:02:15;4.57;;;1.92;;
34902;SDS011;21114;44.840;0.214;2022-07-10T10:04:42;1.08;;;0.95;;
34902;SDS011;21114;44.840;0.214;2022-07-10T10:07:09;6.93;;;2.55;;
34902;SDS011;21114;44.840;0.214;2022-07-10T10:09:40;1.63;;;1.00;;
34902;SDS011;21114;44.840;0.214;2022-07-10T10:12:10;1.75;;;1.08;;
34902;SDS011;21114;44.840;0.214;2022-07-10T10:14:38;1.48;;;0.90;;
34902;SDS011;21114;44.840;0.214;2022-07-10T10:17:05;3.42;;;1.02;;
34902;SDS011;21114;44.840;0.214;2022-07-10T10:19:33;0.98;;;0.88;;
34902;SDS011;21114;44.840;0.214;2022-07-10T10:32:56;2.25;;;1.13;;
34902;SDS011;21114;44.840;0.214;2022-07-10T10:51:19;0.90;;;0.65;;
34902;SDS011;21114;44.840;0.214;2022-07-10T10:53:45;2.25;;;2.05;;
34902;SDS011;21114;44.840;0.214;2022-07-10T10:56:29;1.40;;;1.30;;
34902;SDS011;21114;44.840;0.214;2022-07-10T10:58:57;1.52;;;1.05;;
34902;SDS011;21114;44.840;0.214;2022-07-10T11:01:24;5.03;;;1.48;;
34902;SDS011;21114;44.840;0.214;2022-07-10T11:17:13;1.10;;;0.82;;
34902;SDS011;21114;44.840;0.214;2022-07-10T11:19:39;1.80;;;1.70;;
34902;SDS011;21114;44.840;0.214;2022-07-10T11:22:21;3.22;;;2.17;;
34902;SDS011;21114;44.840;0.214;2022-07-10T11:27:59;5.15;;;2.28;;
34902;SDS011;21114;44.840;0.214;2022-07-10T11:43:53;0.63;;;0.63;;
34902;SDS011;21114;44.840;0.214;2022-07-10T11:46:20;1.08;;;0.77;;
34902;SDS011;21114;44.840;0.214;2022-07-10T11:48:47;1.23;;;0.70;;
34902;SDS011;21114;44.840;0.214;2022-07-10T11:51:17;2.92;;;1.00;;
34902;SDS011;21114;44.840;0.214;2022-07-10T11:53:52;1.48;;;1.15;;
34902;SDS011;21114;44.840;0.214;2022-07-10T11:56:19;1.15;;;0.93;;
34902;SDS011;21114;44.840;0.214;2022-07-10T12:14:41;1.00;;;0.90;;
34902;SDS011;21114;44.840;0.214;2022-07-10T12:17:11;3.33;;;1.95;;
34902;SDS011;21114;44.840;0.214;2022-07-10T12:19:37;1.33;;;1.23;;
34902;SDS011;21114;44.840;0.214;2022-07-10T12:22:04;2.88;;;1.15;;
34902;SDS011;21114;44.840;0.214;2022-07-10T12:24:30;1.02;;;0.88;;
34902;SDS011;21114;44.840;0.214;2022-07-10T12:26:56;2.80;;;1.05;;
34902;SDS011;21114;44.840;0.214;2022-07-10T12:42:30;1.10;;;0.82;;
34902;SDS011;21114;44.840;0.214;2022-07-10T12:58:18;2.15;;;0.77;;
34902;SDS011;21114;44.840;0.214;2022-07-10T13:00:45;1.35;;;0.85;;
34902;SDS011;21114;44.840;0.214;2022-07-10T13:03:21;1.02;;;0.93;;
34902;SDS011;21114;44.840;0.214;2022-07-10T13:05:49;8.88;;;2.75;;
34902;SDS011;21114;44.840;0.214;2022-07-10T13:23:57;1.23;;;0.87;;
34902;SDS011;21114;44.840;0.214;2022-07-10T13:26:25;2.17;;;1.10;;
34902;SDS011;21114;44.840;0.214;2022-07-10T13:28:54;1.75;;;0.80;;
34902;SDS011;21114;44.840;0.214;2022-07-10T13:31:20;1.45;;;0.80;;
34902;SDS011;21114;44.840;0.214;2022-07-10T13:33:46;1.92;;;1.08;;
34902;SDS011;21114;44.840;0.214;2022-07-10T13:36:12;2.15;;;1.20;;
34902;SDS011;21114;44.840;0.214;2022-07-10T13:38:39;1.38;;;0.73;;
34902;SDS011;21114;44.840;0.214;2022-07-10T13:41:07;1.08;;;0.85;;
34902;SDS011;21114;44.840;0.214;2022-07-10T13:43:33;2.17;;;0.95;;
34902;SDS011;21114;44.840;0.214;2022-07-10T13:46:00;1.50;;;1.20;;
34902;SDS011;21114;44.840;0.214;2022-07-10T13:48:26;1.13;;;1.02;;
34902;SDS011;21114;44.840;0.214;2022-07-10T13:50:54;1.70;;;0.98;;
34902;SDS011;21114;44.840;0.214;2022-07-10T13:53:20;1.02;;;0.93;;
34902;SDS011;21114;44.840;0.214;2022-07-10T13:55:46;2.28;;;0.90;;
34902;SDS011;21114;44.840;0.214;2022-07-10T13:58:14;1.45;;;1.05;;
34902;SDS011;21114;44.840;0.214;2022-07-10T14:00:40;2.05;;;1.23;;
34902;SDS011;21114;44.840;0.214;2022-07-10T14:03:06;1.42;;;0.80;;
34902;SDS011;21114;44.840;0.214;2022-07-10T14:05:34;2.15;;;1.73;;
34902;SDS011;21114;44.840;0.214;2022-07-10T14:08:00;1.55;;;1.27;;
34902;SDS011;21114;44.840;0.214;2022-07-10T14:10:27;5.60;;;1.00;;
34902;SDS011;21114;44.840;0.214;2022-07-10T14:12:53;2.78;;;1.42;;
34902;SDS011;21114;44.840;0.214;2022-07-10T14:15:20;1.20;;;1.08;;
34902;SDS011;21114;44.840;0.214;2022-07-10T14:17:46;1.00;;;0.85;;
34902;SDS011;21114;44.840;0.214;2022-07-10T14:20:12;1.40;;;1.13;;
34902;SDS011;21114;44.840;0.214;2022-07-10T14:22:38;1.35;;;0.70;;
34902;SDS011;21114;44.840;0.214;2022-07-10T14:25:05;1.33;;;1.10;;
34902;SDS011;21114;44.840;0.214;2022-07-10T14:27:33;2.45;;;1.25;;
34902;SDS011;21114;44.840;0.214;2022-07-10T14:29:59;2.15;;;0.70;;
34902;SDS011;21114;44.840;0.214;2022-07-10T14:32:25;0.88;;;0.80;;
34902;SDS011;21114;44.840;0.214;2022-07-10T14:34:51;1.10;;;0.70;;
34902;SDS011;21114;44.840;0.214;2022-07-10T14:37:18;1.95;;;1.00;;
34902;SDS011;21114;44.840;0.214;2022-07-10T14:39:44;1.30;;;1.17;;
34902;SDS011;21114;44.840;0.214;2022-07-10T14:42:11;1.67;;;1.45;;
34902;SDS011;21114;44.840;0.214;2022-07-10T14:44:38;2.90;;;1.58;;
34902;SDS011;21114;44.840;0.214;2022-07-10T14:47:05;2.08;;;1.05;;
34902;SDS011;21114;44.840;0.214;2022-07-10T14:49:31;2.38;;;1.00;;
34902;SDS011;21114;44.840;0.214;2022-07-10T14:51:57;2.42;;;1.13;;
34902;SDS011;21114;44.840;0.214;2022-07-10T14:54:23;1.45;;;1.20;;
34902;SDS011;21114;44.840;0.214;2022-07-10T14:56:49;1.88;;;1.05;;
34902;SDS011;21114;44.840;0.214;2022-07-10T14:59:15;3.63;;;1.58;;
34902;SDS011;21114;44.840;0.214;2022-07-10T15:01:42;1.83;;;0.88;;
34902;SDS011;21114;44.840;0.214;2022-07-10T15:04:08;2.72;;;1.02;;
34902;SDS011;21114;44.840;0.214;2022-07-10T15:06:34;2.58;;;1.00;;
34902;SDS011;21114;44.840;0.214;2022-07-10T15:09:00;1.38;;;0.77;;
34902;SDS011;21114;44.840;0.214;2022-07-10T15:11:26;2.55;;;0.90;;
34902;SDS011;21114;44.840;0.214;2022-07-10T15:13:52;0.82;;;0.82;;
34902;SDS011;21114;44.840;0.214;2022-07-10T15:16:24;2.03;;;0.70;;
34902;SDS011;21114;44.840;0.214;2022-07-10T15:18:51;5.00;;;1.33;;
34902;SDS011;21114;44.840;0.214;2022-07-10T15:21:17;2.75;;;1.25;;
34902;SDS011;21114;44.840;0.214;2022-07-10T15:23:44;1.10;;;1.00;;
34902;SDS011;21114;44.840;0.214;2022-07-10T15:26:10;1.15;;;0.95;;
34902;SDS011;21114;44.840;0.214;2022-07-10T15:28:37;3.80;;;0.90;;
34902;SDS011;21114;44.840;0.214;2022-07-10T15:31:03;1.25;;;1.13;;
34902;SDS011;21114;44.840;0.214;2022-07-10T15:33:31;1.00;;;0.90;;
34902;SDS011;21114;44.840;0.214;2022-07-10T15:35:58;1.38;;;1.08;;
34902;SDS011;21114;44.840;0.214;2022-07-10T15:38:24;2.22;;;0.98;;
34902;SDS011;21114;44.840;0.214;2022-07-10T15:40:50;2.58;;;1.15;;
34902;SDS011;21114;44.840;0.214;2022-07-10T15:43:16;1.00;;;0.80;;
34902;SDS011;21114;44.840;0.214;2022-07-10T15:45:42;1.23;;;0.93;;
34902;SDS011;21114;44.840;0.214;2022-07-10T15:48:09;1.42;;;1.20;;
34902;SDS011;21114;44.840;0.214;2022-07-10T15:50:40;1.05;;;0.90;;
34902;SDS011;21114;44.840;0.214;2022-07-10T15:53:06;1.05;;;0.88;;
34902;SDS011;21114;44.840;0.214;2022-07-10T15:55:32;1.00;;;0.90;;
34902;SDS011;21114;44.840;0.214;2022-07-10T15:57:58;6.03;;;1.33;;
34902;SDS011;21114;44.840;0.214;2022-07-10T16:00:24;5.28;;;1.13;;
34902;SDS011;21114;44.840;0.214;2022-07-10T16:02:50;1.05;;;0.88;;
34902;SDS011;21114;44.840;0.214;2022-07-10T16:05:18;1.92;;;1.00;;
34902;SDS011;21114;44.840;0.214;2022-07-10T16:07:44;1.38;;;1.27;;
34902;SDS011;21114;44.840;0.214;2022-07-10T16:10:10;11.38;;;1.20;;
34902;SDS011;21114;44.840;0.214;2022-07-10T16:12:37;1.42;;;1.05;;
34902;SDS011;21114;44.840;0.214;2022-07-10T16:15:04;1.50;;;0.90;;
34902;SDS011;21114;44.840;0.214;2022-07-10T16:17:30;4.82;;;0.85;;
34902;SDS011;21114;44.840;0.214;2022-07-10T16:19:56;1.77;;;1.00;;
34902;SDS011;21114;44.840;0.214;2022-07-10T16:22:23;3.15;;;1.02;;
34902;SDS011;21114;44.840;0.214;2022-07-10T16:24:49;3.10;;;0.90;;
34902;SDS011;21114;44.840;0.214;2022-07-10T16:38:11;2.08;;;0.82;;
34902;SDS011;21114;44.840;0.214;2022-07-10T16:40:40;1.20;;;1.10;;
34902;SDS011;21114;44.840;0.214;2022-07-10T16:43:07;5.53;;;1.08;;
34902;SDS011;21114;44.840;0.214;2022-07-10T16:45:35;1.90;;;0.98;;
34902;SDS011;21114;44.840;0.214;2022-07-10T16:48:01;2.95;;;1.15;;
34902;SDS011;21114;44.840;0.214;2022-07-10T16:50:28;1.55;;;1.05;;
34902;SDS011;21114;44.840;0.214;2022-07-10T16:52:54;2.47;;;1.00;;
34902;SDS011;21114;44.840;0.214;2022-07-10T16:55:20;1.63;;;1.10;;
34902;SDS011;21114;44.840;0.214;2022-07-10T16:57:46;1.70;;;0.90;;
34902;SDS011;21114;44.840;0.214;2022-07-10T17:00:13;2.08;;;0.98;;
34902;SDS011;21114;44.840;0.214;2022-07-10T17:02:40;1.88;;;1.33;;
34902;SDS011;21114;44.840;0.214;2022-07-10T17:05:07;3.13;;;0.90;;
34902;SDS011;21114;44.840;0.214;2022-07-10T17:07:35;1.55;;;1.05;;
34902;SDS011;21114;44.840;0.214;2022-07-10T17:10:02;3.72;;;1.20;;
34902;SDS011;21114;44.840;0.214;2022-07-10T17:12:28;1.33;;;0.80;;
34902;SDS011;21114;44.840;0.214;2022-07-10T17:14:54;1.30;;;1.02;;
34902;SDS011;21114;44.840;0.214;2022-07-10T17:17:21;5.13;;;1.23;;
34902;SDS011;21114;44.840;0.214;2022-07-10T17:19:47;2.97;;;1.40;;
34902;SDS011;21114;44.840;0.214;2022-07-10T17:22:13;1.63;;;0.88;;
34902;SDS011;21114;44.840;0.214;2022-07-10T17:24:39;2.25;;;1.15;;
34902;SDS011;21114;44.840;0.214;2022-07-10T17:27:06;2.88;;;0.90;;
34902;SDS011;21114;44.840;0.214;2022-07-10T17:29:33;4.75;;;1.15;;
34902;SDS011;21114;44.840;0.214;2022-07-10T17:31:59;1.20;;;1.02;;
34902;SDS011;21114;44.840;0.214;2022-07-10T17:34:26;0.88;;;0.88;;
34902;SDS011;21114;44.840;0.214;2022-07-10T17:36:53;0.90;;;0.80;;
34902;SDS011;21114;44.840;0.214;2022-07-10T17:39:19;1.73;;;1.15;;
34902;SDS011;21114;44.840;0.214;2022-07-10T17:41:47;0.90;;;0.70;;
34902;SDS011;21114;44.840;0.214;2022-07-10T17:44:13;1.27;;;1.17;;
34902;SDS011;21114;44.840;0.214;2022-07-10T17:46:40;4.00;;;0.90;;
34902;SDS011;21114;44.840;0.214;2022-07-10T17:49:08;1.60;;;1.20;;
34902;SDS011;21114;44.840;0.214;2022-07-10T17:51:35;0.77;;;0.77;;
34902;SDS011;21114;44.840;0.214;2022-07-10T17:54:02;1.88;;;0.90;;
34902;SDS011;21114;44.840;0.214;2022-07-10T17:56:29;0.70;;;0.70;;
34902;SDS011;21114;44.840;0.214;2022-07-10T17:58:55;1.30;;;1.08;;
34902;SDS011;21114;44.840;0.214;2022-07-10T18:01:21;0.73;;;0.70;;
34902;SDS011;21114;44.840;0.214;2022-07-10T18:03:48;2.05;;;0.90;;
34902;SDS011;21114;44.840;0.214;2022-07-10T18:06:14;1.42;;;1.02;;
34902;SDS011;21114;44.840;0.214;2022-07-10T18:08:40;1.25;;;0.68;;
34902;SDS011;21114;44.840;0.214;2022-07-10T18:11:09;5.07;;;2.35;;
34902;SDS011;21114;44.840;0.214;2022-07-10T18:13:35;1.50;;;0.80;;
34902;SDS011;21114;44.840;0.214;2022-07-10T18:16:01;1.17;;;0.57;;
34902;SDS011;21114;44.840;0.214;2022-07-10T18:18:37;1.25;;;0.95;;
34902;SDS011;21114;44.840;0.214;2022-07-10T18:21:05;1.05;;;0.70;;
34902;SDS011;21114;44.840;0.214;2022-07-10T18:23:31;2.25;;;1.05;;
34902;SDS011;21114;44.840;0.214;2022-07-10T18:25:57;2.38;;;1.10;;
34902;SDS011;21114;44.840;0.214;2022-07-10T18:28:23;5.93;;;2.33;;
34902;SDS011;21114;44.840;0.214;2022-07-10T18:30:51;2.25;;;1.00;;
34902;SDS011;21114;44.840;0.214;2022-07-10T18:33:18;1.90;;;1.05;;
34902;SDS011;21114;44.840;0.214;2022-07-10T18:36:17;1.80;;;1.15;;
34902;SDS011;21114;44.840;0.214;2022-07-10T18:38:43;2.08;;;1.17;;
34902;SDS011;21114;44.840;0.214;2022-07-10T18:41:09;1.75;;;1.02;;
34902;SDS011;21114;44.840;0.214;2022-07-10T18:43:36;1.20;;;1.10;;
34902;SDS011;21114;44.840;0.214;2022-07-10T18:46:03;1.92;;;0.82;;
34902;SDS011;21114;44.840;0.214;2022-07-10T18:48:29;0.80;;;0.77;;
34902;SDS011;21114;44.840;0.214;2022-07-10T18:50:56;1.23;;;0.93;;
34902;SDS011;21114;44.840;0.214;2022-07-10T18:53:23;5.72;;;0.82;;
34902;SDS011;21114;44.840;0.214;2022-07-10T18:55:50;1.20;;;1.00;;
34902;SDS011;21114;44.840;0.214;2022-07-10T18:58:16;2.25;;;0.93;;
34902;SDS011;21114;44.840;0.214;2022-07-10T19:00:44;1.13;;;0.70;;
34902;SDS011;21114;44.840;0.214;2022-07-10T19:03:10;1.00;;;0.80;;
34902;SDS011;21114;44.840;0.214;2022-07-10T19:05:36;3.08;;;1.95;;
34902;SDS011;21114;44.840;0.214;2022-07-10T19:08:04;1.05;;;0.80;;
34902;SDS011;21114;44.840;0.214;2022-07-10T19:10:30;0.80;;;0.80;;
34902;SDS011;21114;44.840;0.214;2022-07-10T19:12:56;1.75;;;0.90;;
34902;SDS011;21114;44.840;0.214;2022-07-10T19:15:22;0.57;;;0.57;;
34902;SDS011;21114;44.840;0.214;2022-07-10T19:17:50;3.70;;;1.02;;
34902;SDS011;21114;44.840;0.214;2022-07-10T19:20:16;1.55;;;0.93;;
34902;SDS011;21114;44.840;0.214;2022-07-10T19:22:42;7.60;;;0.93;;
34902;SDS011;21114;44.840;0.214;2022-07-10T19:25:10;1.58;;;1.42;;
34902;SDS011;21114;44.840;0.214;2022-07-10T19:27:36;2.80;;;1.13;;
34902;SDS011;21114;44.840;0.214;2022-07-10T19:30:03;1.83;;;0.90;;
34902;SDS011;21114;44.840;0.214;2022-07-10T19:32:30;1.70;;;1.13;;
34902;SDS011;21114;44.840;0.214;2022-07-10T19:34:57;0.80;;;0.77;;
34902;SDS011;21114;44.840;0.214;2022-07-10T19:37:23;1.17;;;0.52;;
34902;SDS011;21114;44.840;0.214;2022-07-10T19:39:49;1.80;;;0.80;;
34902;SDS011;21114;44.840;0.214;2022-07-10T19:42:15;2.53;;;1.60;;
34902;SDS011;21114;44.840;0.214;2022-07-10T19:44:41;1.13;;;0.98;;
34902;SDS011;21114;44.840;0.214;2022-07-10T19:47:08;1.27;;;0.98;;
34902;SDS011;21114;44.840;0.214;2022-07-10T19:49:34;2.63;;;0.93;;
34902;SDS011;21114;44.840;0.214;2022-07-10T19:52:00;1.75;;;1.65;;
34902;SDS011;21114;44.840;0.214;2022-07-10T19:54:27;0.90;;;0.77;;
34902;SDS011;21114;44.840;0.214;2022-07-10T19:56:53;1.25;;;0.57;;
34902;SDS011;21114;44.840;0.214;2022-07-10T19:59:19;1.08;;;0.73;;
34902;SDS011;21114;44.840;0.214;2022-07-10T20:01:46;0.80;;;0.70;;
34902;SDS011;21114;44.840;0.214;2022-07-10T20:04:13;1.00;;;0.77;;
34902;SDS011;21114;44.840;0.214;2022-07-10T20:06:40;1.23;;;0.73;;
34902;SDS011;21114;44.840;0.214;2022-07-10T20:09:06;2.30;;;0.75;;
34902;SDS011;21114;44.840;0.214;2022-07-10T20:11:33;0.93;;;0.55;;
34902;SDS011;21114;44.840;0.214;2022-07-10T20:13:59;2.15;;;0.60;;
34902;SDS011;21114;44.840;0.214;2022-07-10T20:16:26;1.55;;;0.98;;
34902;SDS011;21114;44.840;0.214;2022-07-10T20:18:52;0.80;;;0.60;;
34902;SDS011;21114;44.840;0.214;2022-07-10T20:21:18;2.28;;;0.93;;
34902;SDS011;21114;44.840;0.214;2022-07-10T20:23:44;2.22;;;1.67;;
34902;SDS011;21114;44.840;0.214;2022-07-10T20:26:10;1.00;;;0.80;;
34902;SDS011;21114;44.840;0.214;2022-07-10T20:28:36;3.15;;;0.60;;
34902;SDS011;21114;44.840;0.214;2022-07-10T20:31:03;1.30;;;0.98;;
34902;SDS011;21114;44.840;0.214;2022-07-10T20:33:32;1.42;;;0.70;;
34902;SDS011;21114;44.840;0.214;2022-07-10T20:35:58;1.95;;;0.73;;
34902;SDS011;21114;44.840;0.214;2022-07-10T20:49:48;1.30;;;0.82;;
34902;SDS011;21114;44.840;0.214;2022-07-10T20:52:14;1.45;;;1.25;;
34902;SDS011;21114;44.840;0.214;2022-07-10T20:54:41;1.75;;;0.68;;
34902;SDS011;21114;44.840;0.214;2022-07-10T20:57:07;0.63;;;0.50;;
34902;SDS011;21114;44.840;0.214;2022-07-10T20:59:33;2.53;;;0.68;;
34902;SDS011;21114;44.840;0.214;2022-07-10T21:01:59;0.55;;;0.52;;
34902;SDS011;21114;44.840;0.214;2022-07-10T21:04:25;1.98;;;0.60;;
34902;SDS011;21114;44.840;0.214;2022-07-10T21:06:51;1.10;;;0.45;;
34902;SDS011;21114;44.840;0.214;2022-07-10T21:09:17;1.58;;;0.40;;
34902;SDS011;21114;44.840;0.214;2022-07-10T21:11:43;1.05;;;0.50;;
34902;SDS011;21114;44.840;0.214;2022-07-10T21:14:10;1.55;;;0.40;;
34902;SDS011;21114;44.840;0.214;2022-07-10T21:16:36;0.80;;;0.50;;
34902;SDS011;21114;44.840;0.214;2022-07-10T21:19:02;2.72;;;0.73;;
34902;SDS011;21114;44.840;0.214;2022-07-10T21:21:28;1.15;;;0.73;;
34902;SDS011;21114;44.840;0.214;2022-07-10T21:23:54;4.80;;;1.92;;